createdAt,value
2023-05-03T00:00:50.875Z,2.10
2023-05-03T00:03:25.436Z,1.83
2023-05-03T00:05:56.964Z,2.00
2023-05-03T00:08:28.296Z,2.10
2023-05-03T00:11:00.296Z,1.90
2023-05-03T00:13:31.591Z,1.50
2023-05-03T00:16:03.548Z,2.07
2023-05-03T00:18:34.946Z,1.63
2023-05-03T00:21:07.363Z,1.70
2023-05-03T00:23:38.632Z,1.80
2023-05-03T00:26:09.917Z,2.03
2023-05-03T00:28:41.441Z,1.47
2023-05-03T00:31:12.861Z,1.80
2023-05-03T00:33:44.224Z,2.00
2023-05-03T00:36:15.587Z,1.70
2023-05-03T00:38:46.886Z,1.70
2023-05-03T00:41:18.231Z,1.63
2023-05-03T00:43:49.656Z,1.60
2023-05-03T00:46:21.276Z,1.60
2023-05-03T00:48:52.774Z,1.70
2023-05-03T00:51:27.605Z,1.80
2023-05-03T00:53:59.049Z,1.60
2023-05-03T00:56:32.997Z,1.67
2023-05-03T00:59:09.523Z,1.47
2023-05-03T01:01:40.903Z,1.73
2023-05-03T01:04:12.533Z,1.37
2023-05-03T01:07:00.598Z,1.80
2023-05-03T01:09:49.066Z,1.87
2023-05-03T01:12:38.413Z,1.37
2023-05-03T01:15:21.020Z,1.60
2023-05-03T01:17:59.518Z,1.30
2023-05-03T01:20:34.620Z,1.90
2023-05-03T01:23:14.426Z,1.73
2023-05-03T01:25:45.693Z,1.87
2023-05-03T01:28:16.975Z,1.93
2023-05-03T01:30:52.311Z,1.63
2023-05-03T01:33:35.025Z,1.13
2023-05-03T01:36:13.590Z,2.00
2023-05-03T01:38:45.236Z,1.30
2023-05-03T01:41:18.240Z,1.30
2023-05-03T01:43:51.608Z,1.73
2023-05-03T01:46:23.113Z,1.67
2023-05-03T01:48:54.555Z,2.20
2023-05-03T01:51:25.851Z,2.10
2023-05-03T01:53:57.186Z,1.57
2023-05-03T01:56:30.528Z,1.70
2023-05-03T01:59:02.699Z,1.70
2023-05-03T02:01:34.074Z,1.70
2023-05-03T02:04:05.532Z,1.93
2023-05-03T02:06:36.833Z,1.60
2023-05-03T02:09:08.477Z,1.83
2023-05-03T02:11:39.785Z,2.43
2023-05-03T02:14:12.355Z,2.10
2023-05-03T02:16:43.721Z,2.13
2023-05-03T02:19:15.015Z,2.00
2023-05-03T02:21:46.325Z,2.70
2023-05-03T02:24:17.611Z,2.33
2023-05-03T02:26:48.864Z,2.20
2023-05-03T02:29:20.225Z,2.00
2023-05-03T02:31:51.479Z,2.33
2023-05-03T02:34:23.517Z,2.20
2023-05-03T02:36:54.814Z,1.80
2023-05-03T02:39:26.085Z,2.10
2023-05-03T02:41:57.457Z,2.03
2023-05-03T02:44:28.831Z,2.20
2023-05-03T02:47:00.397Z,2.20
2023-05-03T02:49:31.703Z,1.93
2023-05-03T02:52:03.424Z,1.90
2023-05-03T02:54:34.705Z,2.13
2023-05-03T02:57:06.419Z,2.97
2023-05-03T02:59:37.695Z,2.27
2023-05-03T03:02:08.984Z,2.27
2023-05-03T03:04:40.348Z,2.23
2023-05-03T03:07:11.660Z,2.07
2023-05-03T03:09:42.913Z,2.00
2023-05-03T03:12:14.273Z,1.90
2023-05-03T03:14:45.733Z,2.23
2023-05-03T03:17:16.997Z,2.37
2023-05-03T03:19:48.250Z,2.07
2023-05-03T03:22:19.610Z,2.03
2023-05-03T03:24:51.806Z,1.70
2023-05-03T03:27:24.008Z,1.90
2023-05-03T03:29:55.290Z,2.00
2023-05-03T03:32:26.552Z,2.10
2023-05-03T03:34:57.836Z,2.33
2023-05-03T03:37:29.149Z,2.13
2023-05-03T03:40:00.686Z,1.87
2023-05-03T03:42:32.122Z,2.30
2023-05-03T03:45:04.645Z,1.90
2023-05-03T03:47:36.014Z,2.33
2023-05-03T03:50:07.543Z,2.13
2023-05-03T03:52:39.052Z,2.13
2023-05-03T03:55:11.398Z,2.77
2023-05-03T03:57:42.659Z,2.83
2023-05-03T04:00:14.416Z,2.13
2023-05-03T04:02:46.929Z,2.43
2023-05-03T04:05:18.761Z,2.17
2023-05-03T04:07:50.083Z,2.57
2023-05-03T04:10:21.440Z,2.50
2023-05-03T04:12:52.779Z,2.17
2023-05-03T04:15:24.138Z,2.70
2023-05-03T04:17:55.596Z,2.00
2023-05-03T04:20:27.013Z,6.50
2023-05-03T04:22:58.564Z,2.27
2023-05-03T04:25:31.845Z,2.33
2023-05-03T04:28:03.760Z,2.40
2023-05-03T04:30:35.774Z,2.20
2023-05-03T04:33:09.480Z,2.10
2023-05-03T04:35:41.324Z,2.40
2023-05-03T04:38:12.599Z,2.37
2023-05-03T04:40:43.887Z,2.80
2023-05-03T04:43:15.577Z,2.17
2023-05-03T04:45:46.851Z,2.53
2023-05-03T04:48:18.184Z,2.57
2023-05-03T04:50:49.664Z,2.70
2023-05-03T04:53:21.172Z,2.53
2023-05-03T04:55:52.614Z,2.27
2023-05-03T04:58:24.265Z,2.47
2023-05-03T05:00:55.661Z,2.63
2023-05-03T05:03:27.012Z,2.73
2023-05-03T05:05:58.692Z,2.67
2023-05-03T05:08:30.289Z,2.77
2023-05-03T05:11:04.445Z,2.60
2023-05-03T05:13:36.240Z,2.87
2023-05-03T05:16:07.698Z,2.33
2023-05-03T05:18:39.130Z,2.73
2023-05-03T05:21:10.520Z,2.67
2023-05-03T05:23:41.960Z,2.30
2023-05-03T05:26:13.247Z,2.60
2023-05-03T05:28:44.529Z,3.20
2023-05-03T05:31:15.889Z,3.03
2023-05-03T05:33:47.431Z,2.73
2023-05-03T05:36:18.711Z,2.80
2023-05-03T05:38:50.112Z,2.93
2023-05-03T05:41:21.467Z,2.80
2023-05-03T05:43:53.214Z,2.50
2023-05-03T05:46:24.504Z,2.40
2023-05-03T05:48:56.081Z,2.50
2023-05-03T05:51:27.936Z,2.03
2023-05-03T05:53:59.213Z,2.67
2023-05-03T05:56:30.458Z,2.67
2023-05-03T05:59:01.769Z,2.93
2023-05-03T06:01:34.370Z,2.83
2023-05-03T06:04:05.641Z,2.90
2023-05-03T06:06:37.004Z,2.37
2023-05-03T06:09:22.962Z,2.53
2023-05-03T06:11:55.695Z,2.50
2023-05-03T06:14:27.075Z,2.50
2023-05-03T06:16:59.798Z,2.17
2023-05-03T06:19:31.234Z,2.17
2023-05-03T06:22:02.661Z,2.30
2023-05-03T06:24:34.051Z,2.80
2023-05-03T06:27:05.857Z,2.67
2023-05-03T06:29:37.150Z,2.57
2023-05-03T06:32:08.513Z,2.27
2023-05-03T06:34:39.782Z,2.23
2023-05-03T06:37:11.299Z,2.13
2023-05-03T06:39:42.584Z,2.00
2023-05-03T06:42:13.862Z,2.33
2023-05-03T06:44:45.452Z,2.47
2023-05-03T06:47:16.768Z,2.00
2023-05-03T06:49:48.138Z,1.97
2023-05-03T06:52:19.466Z,1.93
2023-05-03T06:54:51.150Z,1.80
2023-05-03T06:57:22.765Z,1.77
2023-05-03T06:59:54.047Z,1.97
2023-05-03T07:02:26.758Z,2.07
2023-05-03T07:04:58.176Z,1.60
2023-05-03T07:07:29.464Z,1.60
2023-05-03T07:10:01.115Z,1.30
2023-05-03T07:12:32.726Z,2.10
2023-05-03T07:15:04.247Z,1.53
2023-05-03T07:17:35.684Z,1.60
2023-05-03T07:20:07.697Z,1.57
2023-05-03T07:22:39.070Z,1.70
2023-05-03T07:25:12.162Z,1.80
2023-05-03T07:27:44.124Z,1.50
2023-05-03T07:30:15.658Z,1.53
2023-05-03T07:32:47.144Z,1.27
2023-05-03T07:35:19.358Z,1.23
2023-05-03T07:37:50.683Z,1.40
2023-05-03T07:40:22.254Z,1.73
2023-05-03T07:42:53.534Z,1.50
2023-05-03T07:45:24.946Z,1.13
2023-05-03T07:47:56.924Z,1.50
2023-05-03T07:50:28.313Z,1.10
2023-05-03T07:52:59.595Z,1.43
2023-05-03T07:55:32.916Z,1.10
2023-05-03T07:58:04.733Z,1.40
2023-05-03T08:00:36.142Z,1.10
2023-05-03T08:03:07.636Z,1.67
2023-05-03T08:05:39.192Z,1.00
2023-05-03T08:08:10.484Z,1.30
2023-05-03T08:10:41.933Z,1.00
2023-05-03T08:13:13.214Z,1.20
2023-05-03T08:15:45.916Z,1.50
2023-05-03T08:18:17.283Z,1.20
2023-05-03T08:20:49.173Z,1.30
2023-05-03T08:23:22.549Z,1.13
2023-05-03T08:25:54.659Z,0.93
2023-05-03T08:28:26.705Z,1.43
2023-05-03T08:30:58.224Z,1.60
2023-05-03T08:33:29.516Z,1.40
2023-05-03T08:36:01.601Z,1.50
2023-05-03T08:38:34.263Z,1.53
2023-05-03T08:41:18.799Z,1.67
2023-05-03T08:43:54.239Z,1.80
2023-05-03T08:46:25.974Z,1.50
2023-05-03T08:48:58.868Z,1.70
2023-05-03T08:51:30.357Z,1.60
2023-05-03T08:54:01.642Z,1.70
2023-05-03T08:56:39.186Z,1.10
2023-05-03T08:59:11.567Z,1.50
2023-05-03T09:01:43.496Z,1.10
2023-05-03T09:04:15.038Z,1.27
2023-05-03T09:06:46.629Z,1.27
2023-05-03T09:09:31.454Z,1.20
2023-05-03T09:12:04.165Z,1.20
2023-05-03T09:14:43.643Z,1.37
2023-05-03T09:17:16.905Z,1.40
2023-05-03T09:19:53.258Z,1.37
2023-05-03T09:22:30.858Z,1.20
2023-05-03T09:25:02.314Z,1.83
2023-05-03T09:27:33.586Z,1.00
2023-05-03T09:30:19.385Z,1.63
2023-05-03T09:32:50.841Z,1.55
2023-05-03T09:35:22.384Z,1.13
2023-05-03T09:37:53.640Z,1.20
2023-05-03T09:40:25.856Z,1.23
2023-05-03T09:43:11.524Z,1.57
2023-05-03T09:45:42.900Z,1.60
2023-05-03T09:48:14.394Z,1.20
2023-05-03T09:50:46.131Z,1.17
2023-05-03T09:53:20.416Z,1.17
2023-05-03T09:55:52.139Z,1.43
2023-05-03T09:58:25.748Z,1.33
2023-05-03T10:00:57.208Z,1.17
2023-05-03T10:03:34.287Z,1.40
2023-05-03T10:06:11.593Z,1.40
2023-05-03T10:08:50.633Z,1.40
2023-05-03T10:11:26.658Z,1.50
2023-05-03T10:13:58.067Z,1.52
2023-05-03T10:16:32.593Z,1.30
2023-05-03T10:19:14.541Z,1.00
2023-05-03T10:21:59.076Z,1.10
2023-05-03T10:24:30.437Z,1.20
2023-05-03T10:27:02.231Z,0.93
2023-05-03T10:29:34.383Z,1.53
2023-05-03T10:32:06.675Z,1.23
2023-05-03T10:34:40.248Z,2.07
2023-05-03T10:37:11.569Z,1.17
2023-05-03T10:39:46.568Z,1.53
2023-05-03T10:42:22.281Z,1.33
2023-05-03T10:44:55.069Z,1.40
2023-05-03T10:47:26.863Z,1.50
2023-05-03T10:50:16.626Z,1.13
2023-05-03T10:52:48.570Z,1.30
2023-05-03T10:55:22.263Z,1.00
2023-05-03T10:57:57.499Z,1.07
2023-05-03T11:00:44.426Z,1.00
2023-05-03T11:03:36.480Z,1.53
2023-05-03T11:06:08.411Z,1.13
2023-05-03T11:08:40.165Z,1.37
2023-05-03T11:11:12.662Z,1.03
2023-05-03T11:13:44.433Z,0.90
2023-05-03T11:16:15.792Z,1.30
2023-05-03T11:18:48.676Z,1.20
2023-05-03T11:21:21.080Z,1.37
2023-05-03T11:23:52.351Z,1.03
2023-05-03T11:26:26.184Z,1.13
2023-05-03T11:28:57.946Z,1.37
2023-05-03T11:31:29.274Z,1.30
2023-05-03T11:34:00.790Z,1.33
2023-05-03T11:36:32.776Z,1.60
2023-05-03T11:39:05.823Z,1.10
2023-05-03T11:41:37.401Z,1.00
2023-05-03T11:46:47.357Z,0.80
2023-05-03T11:49:19.775Z,1.00
2023-05-03T11:51:54.540Z,1.13
2023-05-03T11:54:27.642Z,1.33
2023-05-03T11:56:59.968Z,1.17
2023-05-03T11:59:39.019Z,1.60
2023-05-03T12:02:13.734Z,1.47
2023-05-03T12:05:03.446Z,1.50
2023-05-03T12:07:37.863Z,1.30
2023-05-03T12:10:23.826Z,1.50
2023-05-03T12:13:02.184Z,1.23
2023-05-03T12:15:37.537Z,1.20
2023-05-03T12:18:11.313Z,1.30
2023-05-03T12:21:28.972Z,1.30
2023-05-03T12:23:34.602Z,0.90
2023-05-03T12:26:06.181Z,1.00
2023-05-03T12:28:39.194Z,1.40
2023-05-03T12:33:43.700Z,1.50
2023-05-03T12:36:15.780Z,1.60
2023-05-03T12:38:50.363Z,1.40
2023-05-03T12:41:52.283Z,1.20
2023-05-03T12:44:17.026Z,1.70
2023-05-03T12:46:52.763Z,1.53
2023-05-03T12:49:24.779Z,1.48
2023-05-03T12:52:11.245Z,1.43
2023-05-03T12:54:55.712Z,1.80
2023-05-03T13:00:03.762Z,1.73
2023-05-03T13:05:15.771Z,1.57
2023-05-03T13:07:59.022Z,1.47
2023-05-03T13:10:30.562Z,1.47
2023-05-03T13:13:01.883Z,1.30
2023-05-03T13:15:35.019Z,1.27
2023-05-03T13:18:06.528Z,1.20
2023-05-03T13:20:38.929Z,1.30
2023-05-03T13:23:10.277Z,1.20
2023-05-03T13:25:41.932Z,1.77
2023-05-03T13:28:13.198Z,1.13
2023-05-03T13:30:44.457Z,1.50
2023-05-03T13:33:15.799Z,1.27
2023-05-03T13:35:48.295Z,1.40
2023-05-03T13:38:19.631Z,1.63
2023-05-03T13:40:50.956Z,1.60
2023-05-03T13:43:22.219Z,1.70
2023-05-03T13:46:00.716Z,1.37
2023-05-03T13:48:32.679Z,1.50
2023-05-03T13:51:11.796Z,1.60
2023-05-03T13:53:43.055Z,1.40
2023-05-03T13:56:14.441Z,2.03
2023-05-03T13:58:46.178Z,1.10
2023-05-03T14:01:17.790Z,2.07
2023-05-03T14:03:50.101Z,1.70
2023-05-03T14:06:23.106Z,2.13
2023-05-03T14:08:56.083Z,1.70
2023-05-03T14:11:28.335Z,1.93
2023-05-03T14:14:00.141Z,1.53
2023-05-03T14:16:41.572Z,1.43
2023-05-03T14:19:14.345Z,2.60
2023-05-03T14:21:49.324Z,1.40
2023-05-03T14:24:20.899Z,1.63
2023-05-03T14:26:52.403Z,1.57
2023-05-03T14:29:23.700Z,1.70
2023-05-03T14:31:56.479Z,1.57
2023-05-03T14:34:28.941Z,1.70
2023-05-03T14:37:00.265Z,2.07
2023-05-03T14:39:31.566Z,1.87
2023-05-03T14:42:03.250Z,1.47
2023-05-03T14:44:34.661Z,1.70
2023-05-03T14:47:07.264Z,1.60
2023-05-03T14:49:41.013Z,2.20
2023-05-03T14:52:12.479Z,1.93
2023-05-03T14:54:45.006Z,1.40
2023-05-03T14:57:16.302Z,2.00
2023-05-03T14:59:47.698Z,1.60
2023-05-03T15:02:19.164Z,1.70
2023-05-03T15:04:50.480Z,1.47
2023-05-03T15:07:21.761Z,2.00
2023-05-03T15:09:53.024Z,1.90
2023-05-03T15:12:24.418Z,1.80
2023-05-03T15:14:55.694Z,2.50
2023-05-03T15:17:27.238Z,1.60
2023-05-03T15:19:58.614Z,2.00
2023-05-03T15:22:29.946Z,1.73
2023-05-03T15:25:01.238Z,2.23
2023-05-03T15:27:32.671Z,2.00
2023-05-03T15:30:04.728Z,1.93
2023-05-03T15:32:36.259Z,1.83
2023-05-03T15:35:07.980Z,1.80
2023-05-03T15:37:39.287Z,2.10
2023-05-03T15:40:11.852Z,1.80
2023-05-03T15:42:43.212Z,2.20
2023-05-03T15:45:15.503Z,1.80
2023-05-03T15:47:46.832Z,2.10
2023-05-03T15:50:18.655Z,2.03
2023-05-03T15:52:49.953Z,1.80
2023-05-03T15:55:21.190Z,2.00
2023-05-03T15:57:53.160Z,2.13
2023-05-03T16:00:25.515Z,1.80
2023-05-03T16:02:57.874Z,1.57
2023-05-03T16:05:30.480Z,2.20
2023-05-03T16:08:01.814Z,2.10
2023-05-03T16:10:34.338Z,1.90
2023-05-03T16:13:05.768Z,1.50
2023-05-03T16:15:37.655Z,1.63
2023-05-03T16:18:09.078Z,1.83
2023-05-03T16:20:41.117Z,1.80
2023-05-03T16:23:12.384Z,1.70
2023-05-03T16:25:43.663Z,1.83
2023-05-03T16:28:15.104Z,1.80
2023-05-03T16:30:46.493Z,2.10
2023-05-03T16:33:18.148Z,1.67
2023-05-03T16:35:49.967Z,2.00
2023-05-03T16:38:21.355Z,1.90
2023-05-03T16:40:52.682Z,2.10
2023-05-03T16:43:24.048Z,2.17
2023-05-03T16:46:02.459Z,2.20
2023-05-03T16:48:34.526Z,2.00
2023-05-03T16:51:05.972Z,2.60
2023-05-03T16:53:37.242Z,2.30
2023-05-03T16:56:09.009Z,2.07
2023-05-03T16:58:40.388Z,2.17
2023-05-03T17:01:12.101Z,2.20
2023-05-03T17:03:43.677Z,2.10
2023-05-03T17:06:15.988Z,2.40
2023-05-03T17:08:47.654Z,2.77
2023-05-03T17:11:18.978Z,2.10
2023-05-03T17:13:50.388Z,2.40
2023-05-03T17:16:22.782Z,2.37
2023-05-03T17:18:54.552Z,2.50
2023-05-03T17:21:25.905Z,2.23
2023-05-03T17:23:57.239Z,2.47
2023-05-03T17:26:28.516Z,2.20
2023-05-03T17:28:59.780Z,2.70
2023-05-03T17:31:31.096Z,2.20
2023-05-03T17:34:02.455Z,2.10
2023-05-03T17:36:33.935Z,2.30
2023-05-03T17:39:05.481Z,2.57
2023-05-03T17:41:36.989Z,2.93
2023-05-03T17:44:08.376Z,2.50
2023-05-03T17:46:39.971Z,2.40
2023-05-03T17:49:11.409Z,2.93
2023-05-03T17:51:42.710Z,2.47
2023-05-03T17:54:14.024Z,2.43
2023-05-03T17:56:45.485Z,2.33
2023-05-03T17:59:16.946Z,2.10
2023-05-03T18:01:48.438Z,2.07
2023-05-03T18:04:19.785Z,2.07
2023-05-03T18:06:51.415Z,2.23
2023-05-03T18:09:25.859Z,2.37
2023-05-03T18:11:59.862Z,2.83
2023-05-03T18:14:34.817Z,2.40
2023-05-03T18:17:07.347Z,2.50
2023-05-03T18:19:43.496Z,2.00
2023-05-03T18:24:46.016Z,2.70
2023-05-03T18:27:17.417Z,2.23
2023-05-03T18:29:48.931Z,2.00
2023-05-03T18:32:20.214Z,2.13
2023-05-03T18:34:51.601Z,2.27
2023-05-03T18:37:24.715Z,2.40
2023-05-03T18:39:56.247Z,2.60
2023-05-03T18:42:27.664Z,2.23
2023-05-03T18:44:58.962Z,2.00
2023-05-03T18:47:30.564Z,2.60
2023-05-03T18:50:04.231Z,1.83
2023-05-03T18:52:35.768Z,2.30
2023-05-03T18:55:07.853Z,3.80
2023-05-03T18:57:39.140Z,3.10
2023-05-03T19:00:11.418Z,3.00
2023-05-03T19:02:42.945Z,2.50
2023-05-03T19:05:15.428Z,2.70
2023-05-03T19:07:47.912Z,2.30
2023-05-03T19:10:19.902Z,2.37
2023-05-03T19:12:53.278Z,1.97
2023-05-03T19:15:25.073Z,2.53
2023-05-03T19:17:56.767Z,2.50
2023-05-03T19:20:28.090Z,2.03
2023-05-03T19:22:59.515Z,2.47
2023-05-03T19:25:31.088Z,2.43
2023-05-03T19:28:04.294Z,2.90
2023-05-03T19:30:35.820Z,2.93
2023-05-03T19:33:07.203Z,3.40
2023-05-03T19:35:39.759Z,2.50
2023-05-03T19:38:11.226Z,3.37
2023-05-03T19:40:57.725Z,3.30
2023-05-03T19:43:29.234Z,3.20
2023-05-03T19:46:00.590Z,3.30
2023-05-03T19:48:32.395Z,3.10
2023-05-03T19:51:05.208Z,3.17
2023-05-03T19:53:37.672Z,3.33
2023-05-03T19:56:09.882Z,3.03
2023-05-03T19:58:41.270Z,3.50
2023-05-03T20:01:12.670Z,3.63
2023-05-03T20:03:44.063Z,3.60
2023-05-03T20:06:15.554Z,3.33
2023-05-03T20:08:46.886Z,3.60
2023-05-03T20:11:19.583Z,3.50
2023-05-03T20:13:51.404Z,3.77
2023-05-03T20:16:26.907Z,3.87
2023-05-03T20:18:59.237Z,3.60
2023-05-03T20:21:31.993Z,3.57
2023-05-03T20:24:04.714Z,3.37
2023-05-03T20:26:37.908Z,3.87
2023-05-03T20:29:09.220Z,3.50
2023-05-03T20:31:40.606Z,4.43
2023-05-03T20:34:12.235Z,3.40
2023-05-03T20:36:43.518Z,3.20
2023-05-03T20:39:14.806Z,3.57
2023-05-03T20:41:46.180Z,3.60
2023-05-03T20:44:17.459Z,4.10
2023-05-03T20:46:48.812Z,3.50
2023-05-03T20:49:20.150Z,3.50
2023-05-03T20:51:51.437Z,4.10
2023-05-03T20:54:22.869Z,3.63
2023-05-03T20:56:54.210Z,3.70
2023-05-03T20:59:26.496Z,3.30
2023-05-03T21:01:57.815Z,4.23
2023-05-03T21:04:29.130Z,3.90
2023-05-03T21:07:00.444Z,3.47
2023-05-03T21:09:33.152Z,4.07
2023-05-03T21:12:04.734Z,3.77
2023-05-03T21:14:36.024Z,3.73
2023-05-03T21:17:08.721Z,3.97
2023-05-03T21:19:40.214Z,3.73
2023-05-03T21:22:11.971Z,3.97
2023-05-03T21:24:43.269Z,4.17
2023-05-03T21:27:14.687Z,3.80
2023-05-03T21:29:46.213Z,4.00
2023-05-03T21:32:17.474Z,3.67
2023-05-03T21:34:49.538Z,3.60
2023-05-03T21:37:20.846Z,3.73
2023-05-03T21:40:01.080Z,3.63
2023-05-03T21:42:33.567Z,3.90
2023-05-03T21:45:05.560Z,3.90
2023-05-03T21:47:36.938Z,4.30
2023-05-03T21:50:08.391Z,3.73
2023-05-03T21:52:40.190Z,4.30
2023-05-03T21:55:12.073Z,3.60
2023-05-03T21:57:43.337Z,3.90
2023-05-03T22:00:18.668Z,3.30
2023-05-03T22:02:50.044Z,3.65
2023-05-03T22:05:21.463Z,3.60
2023-05-03T22:07:52.702Z,3.70
2023-05-03T22:10:23.975Z,2.80
2023-05-03T22:12:55.322Z,3.20
2023-05-03T22:15:26.667Z,3.17
2023-05-03T22:17:58.207Z,3.07
2023-05-03T22:20:29.594Z,3.13
2023-05-03T22:23:00.907Z,3.97
2023-05-03T22:25:32.522Z,3.13
2023-05-03T22:28:04.071Z,3.27
2023-05-03T22:30:35.346Z,3.77
2023-05-03T22:33:07.322Z,3.03
2023-05-03T22:35:38.691Z,3.20
2023-05-03T22:38:09.982Z,3.00
2023-05-03T22:40:41.394Z,3.17
2023-05-03T22:43:12.667Z,2.70
2023-05-03T22:45:43.988Z,3.43
2023-05-03T22:48:15.289Z,4.37
2023-05-03T22:50:46.637Z,2.97
2023-05-03T22:53:17.908Z,4.33
2023-05-03T22:56:00.609Z,2.70
2023-05-03T22:58:32.934Z,3.10
2023-05-03T23:01:08.833Z,2.57
2023-05-03T23:03:41.121Z,3.63
2023-05-03T23:06:12.581Z,3.10
2023-05-03T23:08:43.972Z,2.70
2023-05-03T23:11:15.874Z,2.53
2023-05-03T23:13:47.221Z,3.00
2023-05-03T23:16:20.041Z,3.17
2023-05-03T23:18:53.536Z,3.07
2023-05-03T23:21:26.140Z,3.17
2023-05-03T23:23:57.435Z,2.50
2023-05-03T23:26:28.996Z,2.77
2023-05-03T23:29:00.768Z,2.80
2023-05-03T23:31:33.404Z,2.53
2023-05-03T23:34:06.880Z,2.50
2023-05-03T23:36:38.159Z,3.17
2023-05-03T23:39:09.561Z,2.83
2023-05-03T23:41:40.969Z,2.47
2023-05-03T23:44:12.241Z,2.50
2023-05-03T23:46:43.659Z,2.60
2023-05-03T23:49:14.956Z,2.50
2023-05-03T23:51:46.537Z,2.00
2023-05-03T23:54:17.984Z,2.60
2023-05-03T23:56:49.300Z,2.53
2023-05-03T23:59:20.665Z,2.40
